Airfield :
LOGIN :

Register | Disclaimer

   EN    FR    IT 

 










Legend :    VFR   Marginal VFR   IFR   Intensive IFR   Very Intensive IFR
Visi :
Ceiling :
>= 8 km
>= 3000ft
5 to 8 km
1000 to 3000 ft
1500m to 5 km
500 to 1000 ft
800 to 1500m
200 to 500 ft
< 800m
< 200 ft
Symbols :   Thunderstorms  Fog  Heavy snow  Heavy precipitations  Wind > 20 kt
SIGMETs :     Misc.  Thunderstorms  Icing  Turbulence  Mountain Waves  Volcanic Ashes






- Airport Elevation : 158 ft
- IATA code : QAR


EHDL - Deelen Airbase

CURRENT METAR :
  • 250425Z AUTO 04003KT 360V080 4000 BR FEW012 SCT016 BKN019 14/14 Q1015 GRN

EXPIRED METARs :
  • 250355Z AUTO 07003KT 010V090 4100 -RADZ FEW003 BKN014 BKN020 14/13 Q1015 RERA REDZ GRN
  • 250325Z AUTO 05003KT 330V090 5000 DZRA SCT031 SCT053 OVC069 14/13 Q1015 WHT
  • 250255Z AUTO 06004KT 350V090 4600 DZ FEW015CB BKN019 BKN026 OVC030 14/14 Q1016 GRN
  • 250225Z AUTO 06003KT 360V110 4000 -DZ FEW006 BKN008 BKN009 FEW015CB 14/14 Q1016 REDZ GRN
  • 250155Z AUTO VRB02KT 3900 -RADZ FEW007 FEW015CB BKN050 BKN062 14/13 Q1016 GRN
  • 250125Z AUTO 04003KT 340V070 4700 DZRA FEW003 OVC047 14/13 Q1016 GRN
  • 250055Z AUTO 04004KT 360V080 5000 -RADZ FEW059 SCT068 OVC075 14/13 Q1016 WHT
  • 250025Z AUTO 04004KT 350V070 5000 -RA FEW004 OVC075 14/13 Q1017 RERA REDZ WHT
  • 242355Z AUTO 04004KT 340V080 5000 -RA FEW005 SCT047 BKN071 14/14 Q1017 RERA REDZ WHT

Expired Forecast.



MET'MAP, your aeronautical weather chart ! - Copyright ORBIFLY December 2007 - Disclaimer

ORBIFLY MET'MAP TEAM :

Programming & Development : Alexandra Zaïnal
Original concept : Baudouin d'Aumeries
Technical & hardware support : Manuel Goepfert
Assistance : Marc-Olivier Méhu




SOURCES & CREDITS :

   NOAA